Terminal Aerodrome Forecast
Issued by NWS

Home | Current Version | Previous Version | Text Only | Print | Product List | Glossary On
Versions: 1 2 3 4 5 6 7 8 9 10 11 12 13 14 15 16 17 18 19
000
FTUS46 KSTO 251100
TAFSCK
TAF
KSCK 251137Z 2512/2612 12007KT 3SM BR OVC004
      TEMPO 2512/2516 1SM BR
     FM252300 VRB02KT 5SM BR BKN007
      TEMPO 2523/2602 5SM HZ SCT010
     FM260300 VRB03KT 2SM BR OVC005=

USA.gov is the U.S. government's official web portal to all federal, state and local government web resources and services.